createdAt,value
2019-02-27T00:00:59.980Z,54.33
2019-02-27T00:03:29.211Z,56.77
2019-02-27T00:05:56.124Z,52.37
2019-02-27T00:08:22.233Z,50.67
2019-02-27T00:10:48.437Z,50.57
2019-02-27T00:13:14.774Z,50.53
2019-02-27T00:15:41.121Z,53.60
2019-02-27T00:18:07.503Z,51.47
2019-02-27T00:20:36.882Z,50.90
2019-02-27T00:23:02.145Z,50.40
2019-02-27T00:25:29.585Z,53.50
2019-02-27T00:27:55.706Z,45.23
2019-02-27T00:30:22.988Z,51.00
2019-02-27T00:32:51.310Z,49.50
2019-02-27T00:35:17.342Z,52.70
2019-02-27T00:37:43.594Z,51.73
2019-02-27T00:40:09.999Z,49.17
2019-02-27T00:42:36.231Z,50.23
2019-02-27T00:45:07.042Z,49.80
2019-02-27T00:47:33.134Z,49.97
2019-02-27T00:49:59.258Z,48.50
2019-02-27T00:52:25.342Z,53.30
2019-02-27T00:54:52.545Z,46.70
2019-02-27T00:57:20.891Z,50.97
2019-02-27T00:59:46.860Z,46.97
2019-02-27T01:02:12.908Z,51.73
2019-02-27T01:04:38.997Z,49.07
2019-02-27T01:07:05.176Z,52.83
2019-02-27T01:09:31.399Z,53.50
2019-02-27T01:11:57.574Z,52.70
2019-02-27T01:14:23.657Z,51.63
2019-02-27T01:16:50.162Z,48.33
2019-02-27T01:19:19.086Z,48.50
2019-02-27T01:21:45.285Z,49.07
2019-02-27T01:24:11.392Z,49.80
2019-02-27T01:26:37.472Z,48.07
2019-02-27T01:29:04.695Z,49.77
2019-02-27T01:31:30.907Z,49.13
2019-02-27T01:33:57.010Z,45.53
2019-02-27T01:36:24.621Z,48.03
2019-02-27T01:38:51.157Z,50.73
2019-02-27T01:41:24.388Z,50.53
2019-02-27T01:43:48.422Z,45.83
2019-02-27T01:46:14.528Z,45.67
2019-02-27T01:48:43.709Z,51.30
2019-02-27T01:51:08.763Z,47.77
2019-02-27T01:53:34.871Z,47.27
2019-02-27T01:56:01.096Z,51.30
2019-02-27T01:58:27.172Z,50.20
2019-02-27T02:00:56.060Z,44.77
2019-02-27T02:03:21.354Z,45.60
2019-02-27T02:05:47.956Z,44.70
2019-02-27T02:08:14.634Z,45.27
2019-02-27T02:10:40.964Z,46.63
2019-02-27T02:13:15.156Z,49.00
2019-02-27T02:16:01.542Z,50.33
2019-02-27T02:18:31.618Z,47.13
2019-02-27T02:21:19.664Z,44.40
2019-02-27T02:24:15.540Z,50.13
2019-02-27T02:27:09.270Z,47.67
2019-02-27T02:29:59.174Z,49.30
2019-02-27T02:32:52.037Z,42.70
2019-02-27T02:35:54.007Z,44.33
2019-02-27T02:38:40.660Z,44.50
2019-02-27T02:41:13.427Z,45.53
2019-02-27T02:43:46.136Z,44.60
2019-02-27T02:46:19.909Z,45.97
2019-02-27T02:48:55.675Z,42.67
2019-02-27T02:51:43.457Z,44.60
2019-02-27T02:54:19.326Z,45.80
2019-02-27T02:57:00.735Z,44.50
2019-02-27T02:59:46.764Z,45.13
2019-02-27T03:02:23.466Z,42.90
2019-02-27T03:05:06.871Z,44.23
2019-02-27T03:07:45.862Z,43.13
2019-02-27T03:10:25.065Z,44.43
2019-02-27T03:12:57.885Z,43.50
2019-02-27T03:15:42.270Z,43.03
2019-02-27T03:18:26.150Z,47.37
2019-02-27T03:21:01.934Z,42.33
2019-02-27T03:23:31.952Z,42.90
2019-02-27T03:26:04.618Z,44.17
2019-02-27T03:28:41.680Z,42.07
2019-02-27T03:31:33.488Z,44.60
2019-02-27T03:34:48.250Z,44.17
2019-02-27T03:37:19.715Z,40.63
2019-02-27T03:40:11.752Z,43.87
2019-02-27T03:43:10.487Z,45.27
2019-02-27T03:45:52.468Z,40.70
2019-02-27T03:48:28.457Z,44.00
2019-02-27T03:51:07.774Z,42.90
2019-02-27T03:53:52.784Z,47.07
2019-02-27T03:56:48.723Z,42.70
2019-02-27T03:59:27.646Z,42.90
2019-02-27T04:02:08.975Z,41.97
2019-02-27T04:05:05.316Z,42.83
2019-02-27T04:07:32.774Z,41.43
2019-02-27T04:09:59.044Z,43.27
2019-02-27T04:12:25.243Z,40.93
2019-02-27T04:14:51.438Z,40.97
2019-02-27T04:17:28.292Z,43.07
2019-02-27T04:19:55.610Z,44.47
2019-02-27T04:22:21.784Z,48.20
2019-02-27T04:24:48.127Z,45.47
2019-02-27T04:27:20.062Z,45.57
2019-02-27T04:29:42.320Z,43.00
2019-02-27T04:32:09.557Z,44.40
2019-02-27T04:34:36.393Z,41.00
2019-02-27T04:37:02.638Z,41.77
2019-02-27T04:39:28.702Z,39.67
2019-02-27T04:41:54.804Z,42.17
2019-02-27T04:44:20.902Z,40.30
2019-02-27T04:46:47.098Z,38.10
2019-02-27T04:49:13.236Z,41.70
2019-02-27T04:51:39.423Z,41.20
2019-02-27T04:54:07.278Z,37.87
2019-02-27T04:56:33.744Z,41.23
2019-02-27T04:58:59.857Z,40.97
2019-02-27T05:01:26.069Z,38.27
2019-02-27T05:03:52.444Z,40.33
2019-02-27T05:06:18.531Z,48.63
2019-02-27T05:08:44.715Z,42.63
2019-02-27T05:11:13.961Z,39.77
2019-02-27T05:13:39.017Z,37.30
2019-02-27T05:16:05.235Z,38.03
2019-02-27T05:18:31.331Z,37.93
2019-02-27T05:20:57.420Z,40.03
2019-02-27T05:23:23.608Z,38.70
2019-02-27T05:25:49.821Z,39.80
2019-02-27T05:28:16.143Z,38.27
2019-02-27T05:30:44.824Z,39.77
2019-02-27T05:33:10.415Z,36.33
2019-02-27T05:35:36.476Z,36.40
2019-02-27T05:38:02.703Z,39.60
2019-02-27T05:40:29.018Z,42.20
2019-02-27T05:42:55.154Z,41.80
2019-02-27T05:45:21.493Z,38.00
2019-02-27T05:47:47.583Z,36.47
2019-02-27T05:50:13.785Z,37.17
2019-02-27T05:52:40.070Z,37.73
2019-02-27T05:55:07.099Z,38.40
2019-02-27T05:57:33.347Z,34.07
2019-02-27T06:00:02.358Z,35.97
2019-02-27T06:02:27.554Z,36.23
2019-02-27T06:04:56.133Z,40.83
2019-02-27T06:07:21.923Z,39.40
2019-02-27T06:09:49.013Z,38.73
2019-02-27T06:12:15.288Z,38.67
2019-02-27T06:14:41.381Z,36.73
2019-02-27T06:17:10.211Z,38.80
2019-02-27T06:19:35.452Z,36.47
2019-02-27T06:22:01.759Z,35.40
2019-02-27T06:24:27.938Z,40.47
2019-02-27T06:26:54.138Z,38.27
2019-02-27T06:29:23.296Z,39.13
2019-02-27T06:31:48.252Z,40.10
2019-02-27T06:34:14.439Z,36.80
2019-02-27T06:36:42.864Z,36.43
2019-02-27T06:39:08.831Z,40.87
2019-02-27T06:41:34.904Z,47.17
2019-02-27T06:44:03.804Z,39.70
2019-02-27T06:46:29.923Z,48.63
2019-02-27T06:48:56.530Z,47.30
2019-02-27T06:51:22.770Z,45.43
2019-02-27T06:53:48.963Z,39.80
2019-02-27T06:56:15.096Z,46.07
2019-02-27T06:58:41.149Z,39.70
2019-02-27T07:01:09.666Z,48.87
2019-02-27T07:03:35.366Z,47.27
2019-02-27T07:06:03.343Z,43.00
2019-02-27T07:08:29.434Z,44.43
2019-02-27T07:10:58.948Z,41.73
2019-02-27T07:13:23.753Z,39.43
2019-02-27T07:15:49.943Z,37.60
2019-02-27T07:18:16.035Z,43.93
2019-02-27T07:20:42.228Z,36.77
2019-02-27T07:23:08.402Z,39.33
2019-02-27T07:25:34.728Z,40.33
2019-02-27T07:28:01.008Z,36.73
2019-02-27T07:30:28.495Z,42.13
2019-02-27T07:32:54.853Z,38.60
2019-02-27T07:35:25.399Z,42.53
2019-02-27T07:37:49.216Z,39.37
2019-02-27T07:40:16.765Z,40.57
2019-02-27T07:42:42.872Z,38.57
2019-02-27T07:45:16.871Z,41.27
2019-02-27T07:47:43.067Z,39.23
2019-02-27T07:50:11.961Z,35.93
2019-02-27T07:52:38.035Z,36.60
2019-02-27T07:55:21.080Z,33.57
2019-02-27T07:57:36.547Z,34.03
2019-02-27T08:00:14.752Z,28.27
2019-02-27T08:02:39.857Z,32.77
2019-02-27T08:05:07.850Z,27.23
2019-02-27T08:07:33.940Z,35.37
2019-02-27T08:10:03.595Z,33.57
2019-02-27T08:12:28.498Z,29.73
2019-02-27T08:14:54.609Z,29.30
2019-02-27T08:17:20.821Z,31.67
2019-02-27T08:19:47.020Z,30.43
2019-02-27T08:22:13.144Z,27.40
2019-02-27T08:24:39.353Z,28.57
2019-02-27T08:27:07.159Z,29.90
2019-02-27T08:29:33.646Z,27.93
2019-02-27T08:32:01.277Z,29.40
2019-02-27T08:34:27.961Z,28.87
2019-02-27T08:36:54.033Z,28.17
2019-02-27T08:39:20.185Z,35.90
2019-02-27T08:41:46.324Z,27.87
2019-02-27T08:44:13.299Z,29.00
2019-02-27T08:46:39.694Z,28.93
2019-02-27T08:49:05.869Z,28.37
2019-02-27T08:51:32.088Z,26.77
2019-02-27T08:53:59.361Z,28.00
2019-02-27T08:56:26.120Z,28.93
2019-02-27T08:58:52.299Z,25.97
2019-02-27T09:01:21.665Z,27.27
2019-02-27T09:03:47.798Z,27.07
2019-02-27T09:06:16.801Z,26.30
2019-02-27T09:08:44.027Z,25.60
2019-02-27T09:11:10.262Z,27.30
2019-02-27T09:13:36.797Z,23.87
2019-02-27T09:16:03.154Z,28.70
2019-02-27T09:18:29.398Z,27.60
2019-02-27T09:20:55.585Z,24.33
2019-02-27T09:23:21.763Z,23.00
2019-02-27T09:25:48.953Z,25.20
2019-02-27T09:28:16.001Z,20.50
2019-02-27T09:30:42.296Z,23.63
2019-02-27T09:33:08.526Z,27.63
2019-02-27T09:35:38.500Z,23.67
2019-02-27T09:38:02.800Z,24.97
2019-02-27T09:40:29.820Z,24.50
2019-02-27T09:42:56.546Z,21.47
2019-02-27T09:45:25.056Z,22.97
2019-02-27T09:47:51.356Z,23.67
2019-02-27T09:50:41.362Z,25.90
2019-02-27T09:53:07.808Z,21.13
2019-02-27T09:55:34.422Z,20.20
2019-02-27T09:58:00.938Z,24.67
2019-02-27T10:00:33.329Z,18.77
2019-02-27T10:03:00.244Z,20.90
2019-02-27T10:05:26.418Z,20.50
2019-02-27T10:07:52.646Z,22.90
2019-02-27T10:10:18.725Z,20.13
2019-02-27T10:12:44.837Z,20.90
2019-02-27T10:15:11.048Z,20.27
2019-02-27T10:17:37.136Z,19.70
2019-02-27T10:20:08.473Z,19.80
2019-02-27T10:22:34.694Z,19.63
2019-02-27T10:25:00.875Z,19.13
2019-02-27T10:27:28.709Z,20.63
2019-02-27T10:29:55.178Z,17.80
2019-02-27T10:32:21.353Z,20.03
2019-02-27T10:34:47.457Z,20.87
2019-02-27T10:37:17.152Z,19.63
2019-02-27T10:39:41.539Z,19.93
2019-02-27T10:42:07.765Z,19.40
2019-02-27T10:44:34.500Z,19.25
2019-02-27T10:47:00.848Z,18.43
2019-02-27T10:49:28.048Z,18.40
2019-02-27T10:51:54.266Z,18.77
2019-02-27T10:54:20.504Z,20.62
2019-02-27T10:56:46.607Z,18.97
2019-02-27T10:59:12.691Z,16.27
2019-02-27T11:01:38.769Z,18.50
2019-02-27T11:04:04.980Z,16.37
2019-02-27T11:06:34.078Z,18.20
2019-02-27T11:08:59.229Z,15.17
2019-02-27T11:11:25.521Z,16.53
2019-02-27T11:13:55.226Z,15.87
2019-02-27T11:16:21.277Z,17.27
2019-02-27T11:18:48.070Z,17.77
2019-02-27T11:21:14.414Z,17.40
2019-02-27T11:23:41.717Z,18.60
2019-02-27T11:26:08.031Z,17.13
2019-02-27T11:28:34.548Z,15.03
2019-02-27T11:31:01.092Z,16.13
2019-02-27T11:33:27.169Z,19.77
2019-02-27T11:35:53.273Z,16.57
2019-02-27T11:38:24.354Z,16.07
2019-02-27T11:40:47.603Z,16.90
2019-02-27T11:43:13.757Z,17.17
2019-02-27T11:45:39.969Z,15.08
2019-02-27T11:48:07.167Z,16.55
2019-02-27T11:50:33.587Z,17.52
2019-02-27T11:53:02.805Z,17.62
2019-02-27T11:55:27.976Z,16.27
2019-02-27T11:57:54.183Z,16.77
2019-02-27T12:00:23.417Z,14.65
2019-02-27T12:02:49.863Z,15.40
2019-02-27T12:05:16.268Z,15.63
2019-02-27T12:07:42.680Z,13.58
2019-02-27T12:10:12.479Z,18.00
2019-02-27T12:12:38.727Z,13.27
2019-02-27T12:15:09.098Z,12.97
2019-02-27T12:17:36.068Z,15.60
2019-02-27T12:20:03.981Z,15.85
2019-02-27T12:22:32.949Z,12.40
2019-02-27T12:25:00.450Z,12.28
2019-02-27T12:27:47.797Z,14.27
2019-02-27T12:29:54.930Z,12.23
2019-02-27T12:32:21.965Z,11.70
2019-02-27T12:34:48.723Z,13.45
2019-02-27T12:37:26.836Z,11.25
2019-02-27T12:39:43.579Z,12.70
2019-02-27T12:42:10.113Z,14.83
2019-02-27T12:44:36.359Z,11.55
2019-02-27T12:47:05.498Z,12.25
2019-02-27T12:49:30.895Z,11.30
2019-02-27T12:51:57.042Z,11.48
2019-02-27T12:54:23.163Z,11.35
2019-02-27T12:56:49.487Z,11.12
2019-02-27T12:59:15.809Z,11.85
2019-02-27T13:01:42.023Z,12.78
2019-02-27T13:04:08.380Z,12.47
2019-02-27T13:06:37.249Z,11.25
2019-02-27T13:09:04.756Z,11.97
2019-02-27T13:11:32.867Z,11.33
2019-02-27T13:13:59.662Z,10.82
2019-02-27T13:16:26.829Z,11.12
2019-02-27T13:18:53.058Z,11.85
2019-02-27T13:21:20.686Z,9.30
2019-02-27T13:23:47.438Z,12.58
2019-02-27T13:26:13.563Z,15.13
2019-02-27T13:28:39.808Z,13.83
2019-02-27T13:31:06.135Z,9.60
2019-02-27T13:33:32.949Z,11.43
2019-02-27T13:36:01.583Z,11.70
2019-02-27T13:38:28.796Z,10.95
2019-02-27T13:40:55.097Z,15.78
2019-02-27T13:43:21.409Z,14.07
2019-02-27T13:45:48.233Z,11.43
2019-02-27T13:48:14.669Z,11.15
2019-02-27T13:50:41.113Z,11.03
2019-02-27T13:53:07.453Z,12.82
2019-02-27T13:55:33.909Z,11.65
2019-02-27T13:58:03.663Z,10.70
2019-02-27T14:00:30.704Z,11.63
2019-02-27T14:02:57.049Z,15.50
2019-02-27T14:05:23.440Z,19.45
2019-02-27T14:07:49.654Z,13.03
2019-02-27T14:10:20.489Z,12.15
2019-02-27T14:12:45.791Z,12.30
2019-02-27T14:15:17.824Z,14.50
2019-02-27T14:17:44.124Z,14.38
2019-02-27T14:20:13.781Z,17.57
2019-02-27T14:22:41.155Z,11.18
2019-02-27T14:25:13.650Z,13.05
2019-02-27T14:27:40.168Z,14.10
2019-02-27T14:30:16.129Z,13.43
2019-02-27T14:32:44.988Z,14.85
2019-02-27T14:35:10.759Z,11.95
2019-02-27T14:37:37.144Z,13.05
2019-02-27T14:40:10.116Z,16.67
2019-02-27T14:42:36.441Z,15.25
2019-02-27T14:45:06.530Z,16.17
2019-02-27T14:47:32.697Z,14.30
2019-02-27T14:50:00.144Z,14.07
2019-02-27T14:52:27.879Z,15.65
2019-02-27T14:54:53.990Z,16.20
2019-02-27T14:57:20.324Z,15.85
2019-02-27T14:59:46.428Z,14.73
2019-02-27T15:02:12.779Z,17.55
2019-02-27T15:04:39.114Z,14.85
2019-02-27T15:07:05.425Z,15.68
2019-02-27T15:09:36.080Z,18.02
2019-02-27T15:11:59.767Z,17.42
2019-02-27T15:14:25.980Z,19.55
2019-02-27T15:16:52.302Z,17.07
2019-02-27T15:19:18.972Z,17.05
2019-02-27T15:21:46.530Z,17.35
2019-02-27T15:24:13.483Z,18.70
2019-02-27T15:26:45.248Z,19.07
2019-02-27T15:29:07.804Z,17.82
2019-02-27T15:31:34.053Z,17.87
2019-02-27T15:34:00.368Z,18.00
2019-02-27T15:36:29.502Z,17.70
2019-02-27T15:38:54.939Z,20.97
2019-02-27T15:41:21.287Z,19.80
2019-02-27T15:43:57.390Z,20.17
2019-02-27T15:46:15.848Z,18.52
2019-02-27T15:48:42.058Z,17.77
2019-02-27T15:51:08.353Z,17.35
2019-02-27T15:53:34.565Z,17.25
2019-02-27T15:56:00.927Z,17.35
2019-02-27T15:58:28.051Z,16.67
2019-02-27T16:00:55.042Z,17.20
2019-02-27T16:03:22.889Z,19.85
2019-02-27T16:05:49.561Z,19.87
2019-02-27T16:08:15.739Z,20.65
2019-02-27T16:10:43.821Z,19.07
2019-02-27T16:13:10.219Z,19.45
2019-02-27T16:15:36.447Z,18.60
2019-02-27T16:18:04.614Z,17.32
2019-02-27T16:20:31.030Z,16.48
2019-02-27T16:22:57.224Z,17.35
2019-02-27T16:25:25.944Z,16.15
2019-02-27T16:27:52.298Z,19.20
2019-02-27T16:30:21.546Z,18.95
2019-02-27T16:32:49.478Z,18.25
2019-02-27T16:35:17.354Z,16.50
2019-02-27T16:37:43.695Z,20.35
2019-02-27T16:40:18.652Z,17.62
2019-02-27T16:42:45.408Z,19.37
2019-02-27T16:45:20.435Z,18.98
2019-02-27T16:47:46.728Z,19.65
2019-02-27T16:50:15.427Z,19.75
2019-02-27T16:52:42.240Z,26.95
2019-02-27T16:55:13.319Z,21.35
2019-02-27T16:57:39.625Z,22.43
2019-02-27T17:00:09.543Z,21.43
2019-02-27T17:02:38.260Z,20.60
2019-02-27T17:05:10.498Z,25.60
2019-02-27T17:07:36.738Z,19.90
2019-02-27T17:10:10.980Z,19.50
2019-02-27T17:12:38.223Z,19.37
2019-02-27T17:15:11.172Z,21.63
2019-02-27T17:17:37.282Z,20.90
2019-02-27T17:20:12.698Z,26.33
2019-02-27T17:22:36.914Z,25.50
2019-02-27T17:25:09.799Z,24.87
2019-02-27T17:27:36.091Z,23.63
2019-02-27T17:30:17.624Z,26.60
2019-02-27T17:32:43.980Z,22.80
2019-02-27T17:35:10.303Z,24.60
2019-02-27T17:37:37.393Z,24.83
2019-02-27T17:40:09.024Z,23.77
2019-02-27T17:42:35.254Z,27.70
2019-02-27T17:45:04.154Z,26.93
2019-02-27T17:47:32.084Z,25.27
2019-02-27T17:49:58.325Z,25.47
2019-02-27T17:52:24.524Z,28.60
2019-02-27T17:54:50.642Z,25.60
2019-02-27T17:57:16.901Z,26.47
2019-02-27T17:59:43.100Z,28.00
2019-02-27T18:02:09.450Z,29.47
2019-02-27T18:04:35.825Z,33.87
2019-02-27T18:07:09.192Z,30.63
2019-02-27T18:09:34.524Z,33.57
2019-02-27T18:12:04.504Z,33.67
2019-02-27T18:14:30.632Z,36.93
2019-02-27T18:16:59.208Z,37.27
2019-02-27T18:19:24.867Z,34.80
2019-02-27T18:21:50.969Z,35.20
2019-02-27T18:24:20.102Z,36.07
2019-02-27T18:26:50.079Z,37.83
2019-02-27T18:29:14.681Z,37.57
2019-02-27T18:31:41.027Z,38.30
2019-02-27T18:34:07.228Z,35.73
2019-02-27T18:36:42.611Z,41.67
2019-02-27T18:39:06.959Z,44.80
2019-02-27T18:41:33.783Z,50.40
2019-02-27T18:44:01.229Z,54.00
2019-02-27T18:46:30.036Z,47.27
2019-02-27T18:48:56.362Z,48.33
2019-02-27T18:51:22.665Z,43.83
2019-02-27T18:53:49.006Z,42.83
2019-02-27T18:56:15.414Z,40.73
2019-02-27T18:58:41.809Z,38.13
2019-02-27T19:01:09.862Z,39.37
2019-02-27T19:03:36.877Z,32.30
2019-02-27T19:06:11.993Z,38.17
2019-02-27T19:08:41.350Z,37.07
2019-02-27T19:11:07.810Z,35.83
2019-02-27T19:13:35.142Z,37.37
2019-02-27T19:16:06.537Z,38.50
2019-02-27T19:18:41.134Z,38.57
2019-02-27T19:21:08.321Z,36.03
2019-02-27T19:23:34.731Z,34.50
2019-02-27T19:26:06.368Z,38.40
2019-02-27T19:28:33.818Z,36.30
2019-02-27T19:30:59.952Z,38.87
2019-02-27T19:33:32.619Z,38.17
2019-02-27T19:38:32.597Z,37.67
2019-02-27T19:41:01.326Z,37.20
2019-02-27T19:43:31.866Z,37.50
2019-02-27T19:48:32.064Z,35.60
2019-02-27T19:50:58.362Z,37.80
2019-02-27T19:53:24.738Z,37.47
2019-02-27T19:58:23.242Z,39.10
2019-02-27T20:00:52.293Z,36.17
2019-02-27T20:03:18.702Z,36.17
2019-02-27T20:05:45.480Z,34.27
2019-02-27T20:08:11.851Z,34.33
2019-02-27T20:10:41.360Z,35.30
2019-02-27T20:13:08.079Z,33.77
2019-02-27T20:15:34.510Z,37.63
2019-02-27T20:18:08.244Z,35.80
2019-02-27T20:20:40.029Z,35.23
2019-02-27T20:23:08.903Z,31.60
2019-02-27T20:25:47.385Z,33.30
2019-02-27T20:28:13.600Z,37.40
2019-02-27T20:30:40.422Z,34.87
2019-02-27T20:33:06.771Z,33.80
2019-02-27T20:35:39.105Z,33.00
2019-02-27T20:38:07.908Z,33.37
2019-02-27T20:40:35.236Z,34.87
2019-02-27T20:43:10.104Z,36.00
2019-02-27T20:45:36.340Z,34.90
2019-02-27T20:48:08.618Z,39.87
2019-02-27T20:50:45.704Z,32.40
2019-02-27T20:53:13.197Z,37.30
2019-02-27T20:55:39.986Z,36.87
2019-02-27T20:58:17.930Z,40.67
2019-02-27T21:00:44.345Z,33.97
2019-02-27T21:03:10.733Z,38.33
2019-02-27T21:05:40.947Z,39.97
2019-02-27T21:08:06.827Z,35.73
2019-02-27T21:10:33.693Z,35.83
2019-02-27T21:13:00.017Z,34.43
2019-02-27T21:15:33.466Z,34.33
2019-02-27T21:17:59.979Z,38.07
2019-02-27T21:20:26.337Z,38.00
2019-02-27T21:22:55.044Z,38.23
2019-02-27T21:25:21.157Z,37.43
2019-02-27T21:27:47.470Z,37.47
2019-02-27T21:30:18.892Z,37.67
2019-02-27T21:32:44.166Z,34.87
2019-02-27T21:35:10.477Z,39.43
2019-02-27T21:37:37.338Z,38.03
2019-02-27T21:40:09.212Z,37.43
2019-02-27T21:42:35.544Z,39.40
2019-02-27T21:45:03.650Z,38.27
2019-02-27T21:47:31.029Z,38.60
2019-02-27T21:49:57.121Z,36.87
2019-02-27T21:52:23.448Z,33.90
2019-02-27T21:54:49.806Z,37.10
2019-02-27T21:57:15.989Z,39.43
2019-02-27T21:59:42.388Z,37.00
2019-02-27T22:02:09.000Z,35.70
2019-02-27T22:04:35.308Z,43.77
2019-02-27T22:07:01.599Z,40.37
2019-02-27T22:09:27.783Z,47.30
2019-02-27T22:11:53.996Z,39.47
2019-02-27T22:14:20.397Z,38.93
2019-02-27T22:16:46.503Z,37.93
2019-02-27T22:19:12.824Z,43.07
2019-02-27T22:21:38.953Z,39.13
2019-02-27T22:24:05.279Z,42.50
2019-02-27T22:26:37.079Z,43.33
2019-02-27T22:29:00.014Z,43.10
2019-02-27T22:31:26.275Z,37.17
2019-02-27T22:33:53.137Z,41.37
2019-02-27T22:36:20.456Z,44.57
2019-02-27T22:38:46.654Z,38.63
2019-02-27T22:41:13.846Z,37.77
2019-02-27T22:43:40.103Z,41.73
2019-02-27T22:46:06.284Z,41.10
2019-02-27T22:48:32.519Z,38.80
2019-02-27T22:50:58.863Z,38.80
2019-02-27T22:53:26.238Z,39.67
2019-02-27T22:55:53.352Z,37.80
2019-02-27T22:58:19.852Z,38.33
2019-02-27T23:00:56.349Z,35.37
2019-02-27T23:03:36.917Z,41.67
2019-02-27T23:06:04.007Z,37.53
2019-02-27T23:08:30.361Z,38.07
2019-02-27T23:10:56.633Z,38.70
2019-02-27T23:13:22.895Z,37.37
2019-02-27T23:15:49.288Z,36.77
2019-02-27T23:18:15.487Z,38.87
2019-02-27T23:20:41.585Z,37.03
2019-02-27T23:23:07.922Z,38.23
2019-02-27T23:25:34.056Z,39.40
2019-02-27T23:28:01.026Z,39.93
2019-02-27T23:30:28.403Z,37.70
2019-02-27T23:32:54.734Z,39.10
2019-02-27T23:35:21.146Z,39.27
2019-02-27T23:37:47.266Z,41.97
2019-02-27T23:40:16.913Z,41.33
2019-02-27T23:42:41.633Z,36.40
2019-02-27T23:45:10.311Z,32.40
2019-02-27T23:47:37.729Z,40.10
2019-02-27T23:50:10.819Z,37.63
2019-02-27T23:52:35.796Z,36.93
2019-02-27T23:55:02.281Z,36.77
2019-02-27T23:57:28.682Z,37.67
2019-02-27T23:59:54.880Z,36.73
